sensor_id;sensor_type;location;lat;lon;timestamp;pressure;altitude;pressure_sealevel;temperature;humidity
18819;BME280;9537;45.594;9.294;2023-11-18T00:00:21;99973.16;;;11.50;35.42
18819;BME280;9537;45.594;9.294;2023-11-18T00:01:25;99973.03;;;11.52;35.76
18819;BME280;9537;45.594;9.294;2023-11-18T00:02:30;99971.19;;;11.52;35.64
18819;BME280;9537;45.594;9.294;2023-11-18T00:03:34;99971.19;;;11.52;35.27
18819;BME280;9537;45.594;9.294;2023-11-18T00:04:35;99966.56;;;11.54;35.53
18819;BME280;9537;45.594;9.294;2023-11-18T00:05:36;99971.84;;;11.54;36.01
18819;BME280;9537;45.594;9.294;2023-11-18T00:06:37;99974.50;;;11.54;35.80
18819;BME280;9537;45.594;9.294;2023-11-18T00:07:39;99970.19;;;11.53;36.01
18819;BME280;9537;45.594;9.294;2023-11-18T00:08:39;99967.38;;;11.55;36.04
18819;BME280;9537;45.594;9.294;2023-11-18T00:09:41;99965.09;;;11.52;35.33
18819;BME280;9537;45.594;9.294;2023-11-18T00:10:46;99976.13;;;11.55;35.61
18819;BME280;9537;45.594;9.294;2023-11-18T00:11:48;99966.22;;;11.57;35.36
18819;BME280;9537;45.594;9.294;2023-11-18T00:12:49;99953.00;;;11.57;35.40
18819;BME280;9537;45.594;9.294;2023-11-18T00:13:50;99961.94;;;11.56;35.10
18819;BME280;9537;45.594;9.294;2023-11-18T00:14:52;99947.22;;;11.54;34.85
18819;BME280;9537;45.594;9.294;2023-11-18T00:15:53;99960.25;;;11.55;35.03
18819;BME280;9537;45.594;9.294;2023-11-18T00:16:55;99952.81;;;11.59;33.96
18819;BME280;9537;45.594;9.294;2023-11-18T00:17:59;99952.66;;;11.60;34.04
18819;BME280;9537;45.594;9.294;2023-11-18T00:19:00;99940.06;;;11.62;33.82
18819;BME280;9537;45.594;9.294;2023-11-18T00:20:06;99950.31;;;11.65;33.34
18819;BME280;9537;45.594;9.294;2023-11-18T00:21:10;99930.78;;;11.66;33.27
18819;BME280;9537;45.594;9.294;2023-11-18T00:22:12;99946.31;;;11.69;33.48
18819;BME280;9537;45.594;9.294;2023-11-18T00:23:12;99933.75;;;11.71;32.05
18819;BME280;9537;45.594;9.294;2023-11-18T00:24:14;99948.09;;;11.77;31.18
18819;BME280;9537;45.594;9.294;2023-11-18T00:25:15;99932.69;;;11.81;31.56
18819;BME280;9537;45.594;9.294;2023-11-18T00:26:16;99943.94;;;11.83;31.73
18819;BME280;9537;45.594;9.294;2023-11-18T00:27:17;99947.09;;;11.86;31.70
18819;BME280;9537;45.594;9.294;2023-11-18T00:28:18;99939.81;;;11.88;31.59
18819;BME280;9537;45.594;9.294;2023-11-18T00:29:20;99967.91;;;11.89;31.18
18819;BME280;9537;45.594;9.294;2023-11-18T00:30:21;99941.44;;;11.89;31.18
18819;BME280;9537;45.594;9.294;2023-11-18T00:31:24;99947.41;;;11.91;30.98
18819;BME280;9537;45.594;9.294;2023-11-18T00:32:26;99953.34;;;11.93;30.98
18819;BME280;9537;45.594;9.294;2023-11-18T00:33:27;99958.28;;;11.97;31.68
18819;BME280;9537;45.594;9.294;2023-11-18T00:34:29;99955.44;;;11.98;30.86
18819;BME280;9537;45.594;9.294;2023-11-18T00:35:29;99962.22;;;12.01;30.64
18819;BME280;9537;45.594;9.294;2023-11-18T00:36:32;99956.28;;;11.99;30.86
18819;BME280;9537;45.594;9.294;2023-11-18T00:37:33;99968.53;;;12.00;30.37
18819;BME280;9537;45.594;9.294;2023-11-18T00:38:34;99955.28;;;12.00;30.77
18819;BME280;9537;45.594;9.294;2023-11-18T00:39:35;99958.41;;;12.03;31.00
18819;BME280;9537;45.594;9.294;2023-11-18T00:40:37;99967.00;;;12.05;31.08
18819;BME280;9537;45.594;9.294;2023-11-18T00:41:38;99962.03;;;12.10;31.00
18819;BME280;9537;45.594;9.294;2023-11-18T00:42:39;99967.31;;;12.10;30.57
18819;BME280;9537;45.594;9.294;2023-11-18T00:43:42;99960.34;;;12.09;30.89
18819;BME280;9537;45.594;9.294;2023-11-18T00:44:44;99957.03;;;12.07;31.13
18819;BME280;9537;45.594;9.294;2023-11-18T00:45:44;99966.66;;;12.08;30.45
18819;BME280;9537;45.594;9.294;2023-11-18T00:46:47;99970.94;;;12.09;30.54
18819;BME280;9537;45.594;9.294;2023-11-18T00:47:49;99976.25;;;12.09;30.72
18819;BME280;9537;45.594;9.294;2023-11-18T00:48:51;99977.72;;;12.12;29.96
18819;BME280;9537;45.594;9.294;2023-11-18T00:49:51;99966.13;;;12.13;29.97
18819;BME280;9537;45.594;9.294;2023-11-18T00:50:54;99982.84;;;12.13;30.05
18819;BME280;9537;45.594;9.294;2023-11-18T00:51:56;99977.38;;;12.15;29.77
18819;BME280;9537;45.594;9.294;2023-11-18T00:52:58;99973.09;;;12.14;29.79
18819;BME280;9537;45.594;9.294;2023-11-18T00:53:59;99975.88;;;12.12;30.09
18819;BME280;9537;45.594;9.294;2023-11-18T00:55:04;99991.16;;;12.10;29.41
18819;BME280;9537;45.594;9.294;2023-11-18T00:56:07;99984.66;;;12.13;29.26
18819;BME280;9537;45.594;9.294;2023-11-18T00:57:10;99977.19;;;12.16;29.51
18819;BME280;9537;45.594;9.294;2023-11-18T00:58:11;99996.56;;;12.17;29.54
18819;BME280;9537;45.594;9.294;2023-11-18T00:59:13;99995.09;;;12.14;29.07
18819;BME280;9537;45.594;9.294;2023-11-18T01:00:15;99988.78;;;12.15;29.21
18819;BME280;9537;45.594;9.294;2023-11-18T01:01:21;99988.97;;;12.14;29.53
18819;BME280;9537;45.594;9.294;2023-11-18T01:02:22;99997.72;;;12.14;29.94
18819;BME280;9537;45.594;9.294;2023-11-18T01:03:25;100002.66;;;12.17;30.31
18819;BME280;9537;45.594;9.294;2023-11-18T01:04:26;100009.81;;;12.17;29.51
18819;BME280;9537;45.594;9.294;2023-11-18T01:05:28;99995.75;;;12.16;29.79
18819;BME280;9537;45.594;9.294;2023-11-18T01:06:31;99995.91;;;12.15;29.78
18819;BME280;9537;45.594;9.294;2023-11-18T01:07:33;100001.03;;;12.16;29.84
18819;BME280;9537;45.594;9.294;2023-11-18T01:08:34;100017.91;;;12.15;29.92
18819;BME280;9537;45.594;9.294;2023-11-18T01:09:36;100011.78;;;12.15;29.81
18819;BME280;9537;45.594;9.294;2023-11-18T01:10:39;100012.59;;;12.15;29.75
18819;BME280;9537;45.594;9.294;2023-11-18T01:11:40;100002.19;;;12.14;29.64
18819;BME280;9537;45.594;9.294;2023-11-18T01:12:42;100000.19;;;12.16;29.50
18819;BME280;9537;45.594;9.294;2023-11-18T01:13:45;100002.84;;;12.16;29.56
18819;BME280;9537;45.594;9.294;2023-11-18T01:14:46;100003.03;;;12.14;29.77
18819;BME280;9537;45.594;9.294;2023-11-18T01:15:48;100011.78;;;12.15;29.65
18819;BME280;9537;45.594;9.294;2023-11-18T01:16:49;100002.00;;;12.15;29.32
18819;BME280;9537;45.594;9.294;2023-11-18T01:17:51;100008.97;;;12.16;29.49
18819;BME280;9537;45.594;9.294;2023-11-18T01:18:53;100009.97;;;12.15;29.93
18819;BME280;9537;45.594;9.294;2023-11-18T01:19:55;100009.13;;;12.15;29.91
18819;BME280;9537;45.594;9.294;2023-11-18T01:20:56;100006.34;;;12.16;29.82
18819;BME280;9537;45.594;9.294;2023-11-18T01:21:59;100006.50;;;12.15;29.75
18819;BME280;9537;45.594;9.294;2023-11-18T01:23:00;100009.31;;;12.13;29.91
18819;BME280;9537;45.594;9.294;2023-11-18T01:24:02;100012.78;;;12.14;30.12
18819;BME280;9537;45.594;9.294;2023-11-18T01:25:04;100011.63;;;12.16;29.32
18819;BME280;9537;45.594;9.294;2023-11-18T01:26:06;100014.28;;;12.16;29.46
18819;BME280;9537;45.594;9.294;2023-11-18T01:27:08;100014.28;;;12.16;29.43
18819;BME280;9537;45.594;9.294;2023-11-18T01:28:11;100012.59;;;12.15;29.47
18819;BME280;9537;45.594;9.294;2023-11-18T01:29:12;100015.25;;;12.15;29.16
18819;BME280;9537;45.594;9.294;2023-11-18T01:30:13;100009.97;;;12.15;29.16
18819;BME280;9537;45.594;9.294;2023-11-18T01:31:14;100013.63;;;12.14;29.32
18819;BME280;9537;45.594;9.294;2023-11-18T01:32:18;100021.38;;;12.16;29.06
18819;BME280;9537;45.594;9.294;2023-11-18T01:33:19;100009.97;;;12.15;28.94
18819;BME280;9537;45.594;9.294;2023-11-18T01:34:22;100024.00;;;12.16;29.33
18819;BME280;9537;45.594;9.294;2023-11-18T01:35:23;100015.25;;;12.15;29.29
18819;BME280;9537;45.594;9.294;2023-11-18T01:36:27;100016.06;;;12.16;29.02
18819;BME280;9537;45.594;9.294;2023-11-18T01:37:28;100018.91;;;12.14;29.43
18819;BME280;9537;45.594;9.294;2023-11-18T01:38:29;100020.53;;;12.15;29.47
18819;BME280;9537;45.594;9.294;2023-11-18T01:39:31;100017.75;;;12.17;29.27
18819;BME280;9537;45.594;9.294;2023-11-18T01:40:33;100022.22;;;12.16;28.75
18819;BME280;9537;45.594;9.294;2023-11-18T01:41:33;100017.91;;;12.15;28.89
18819;BME280;9537;45.594;9.294;2023-11-18T01:42:36;100027.50;;;12.16;29.27
18819;BME280;9537;45.594;9.294;2023-11-18T01:43:37;100025.03;;;12.15;29.55
18819;BME280;9537;45.594;9.294;2023-11-18T01:44:40;100027.00;;;12.13;29.13
18819;BME280;9537;45.594;9.294;2023-11-18T01:45:41;100021.91;;;12.11;28.50
18819;BME280;9537;45.594;9.294;2023-11-18T01:46:43;100020.28;;;12.10;28.91
18819;BME280;9537;45.594;9.294;2023-11-18T01:47:46;100022.06;;;12.10;28.49
18819;BME280;9537;45.594;9.294;2023-11-18T01:48:49;100020.28;;;12.10;28.91
18819;BME280;9537;45.594;9.294;2023-11-18T01:49:51;100015.78;;;12.11;28.67
18819;BME280;9537;45.594;9.294;2023-11-18T01:50:53;100021.09;;;12.11;29.23
18819;BME280;9537;45.594;9.294;2023-11-18T01:51:56;100013.16;;;12.11;28.81
18819;BME280;9537;45.594;9.294;2023-11-18T01:52:57;100027.19;;;12.11;28.98
18819;BME280;9537;45.594;9.294;2023-11-18T01:54:02;100028.22;;;12.10;28.56
18819;BME280;9537;45.594;9.294;2023-11-18T01:55:06;100017.44;;;12.12;28.78
18819;BME280;9537;45.594;9.294;2023-11-18T01:56:08;100019.41;;;12.10;28.38
18819;BME280;9537;45.594;9.294;2023-11-18T01:57:09;100032.66;;;12.10;28.55
18819;BME280;9537;45.594;9.294;2023-11-18T01:58:11;100019.41;;;12.10;28.63
18819;BME280;9537;45.594;9.294;2023-11-18T01:59:13;100028.22;;;12.10;28.72
18819;BME280;9537;45.594;9.294;2023-11-18T02:00:18;100025.72;;;12.09;28.66
18819;BME280;9537;45.594;9.294;2023-11-18T02:01:19;100027.38;;;12.10;29.27
18819;BME280;9537;45.594;9.294;2023-11-18T02:02:22;100037.94;;;12.10;29.19
18819;BME280;9537;45.594;9.294;2023-11-18T02:03:23;100041.44;;;12.10;29.05
18819;BME280;9537;45.594;9.294;2023-11-18T02:04:26;100044.09;;;12.10;28.78
18819;BME280;9537;45.594;9.294;2023-11-18T02:05:29;100043.25;;;12.10;29.11
18819;BME280;9537;45.594;9.294;2023-11-18T02:06:32;100051.03;;;12.11;27.92
18819;BME280;9537;45.594;9.294;2023-11-18T02:07:34;100055.31;;;12.12;28.46
18819;BME280;9537;45.594;9.294;2023-11-18T02:08:37;100054.34;;;12.13;28.10
18819;BME280;9537;45.594;9.294;2023-11-18T02:09:39;100054.16;;;12.15;28.17
18819;BME280;9537;45.594;9.294;2023-11-18T02:10:46;100066.72;;;12.13;28.39
18819;BME280;9537;45.594;9.294;2023-11-18T02:11:53;100069.38;;;12.13;28.39
18819;BME280;9537;45.594;9.294;2023-11-18T02:13:06;100062.44;;;12.12;28.65
18819;BME280;9537;45.594;9.294;2023-11-18T02:14:13;100072.22;;;12.11;28.74
18819;BME280;9537;45.594;9.294;2023-11-18T02:15:17;100068.75;;;12.11;28.68
18819;BME280;9537;45.594;9.294;2023-11-18T02:16:20;100072.22;;;12.11;29.21
18819;BME280;9537;45.594;9.294;2023-11-18T02:17:22;100076.84;;;12.09;29.44
18819;BME280;9537;45.594;9.294;2023-11-18T02:18:25;100076.03;;;12.09;29.20
18819;BME280;9537;45.594;9.294;2023-11-18T02:19:28;100074.41;;;12.08;29.69
18819;BME280;9537;45.594;9.294;2023-11-18T02:20:32;100077.84;;;12.08;29.21
18819;BME280;9537;45.594;9.294;2023-11-18T02:21:36;100085.97;;;12.07;28.62
18819;BME280;9537;45.594;9.294;2023-11-18T02:22:38;100087.78;;;12.06;29.16
18819;BME280;9537;45.594;9.294;2023-11-18T02:23:40;100080.84;;;12.05;29.27
18819;BME280;9537;45.594;9.294;2023-11-18T02:24:42;100089.97;;;12.03;28.62
18819;BME280;9537;45.594;9.294;2023-11-18T02:25:46;100086.31;;;12.04;29.32
18819;BME280;9537;45.594;9.294;2023-11-18T02:26:46;100088.28;;;12.02;29.50
18819;BME280;9537;45.594;9.294;2023-11-18T02:27:48;100091.94;;;12.01;29.84
18819;BME280;9537;45.594;9.294;2023-11-18T02:28:49;100091.94;;;12.01;29.37
18819;BME280;9537;45.594;9.294;2023-11-18T02:29:52;100094.78;;;11.99;29.63
18819;BME280;9537;45.594;9.294;2023-11-18T02:30:56;100090.31;;;12.00;30.28
18819;BME280;9537;45.594;9.294;2023-11-18T02:32:06;100093.94;;;11.99;30.58
18819;BME280;9537;45.594;9.294;2023-11-18T02:33:14;100093.09;;;11.98;30.83
18819;BME280;9537;45.594;9.294;2023-11-18T02:34:23;100092.28;;;11.98;31.56
18819;BME280;9537;45.594;9.294;2023-11-18T02:35:30;100097.78;;;11.96;32.23
18819;BME280;9537;45.594;9.294;2023-11-18T02:36:43;100109.34;;;11.95;32.53
18819;BME280;9537;45.594;9.294;2023-11-18T02:37:47;100101.59;;;11.93;32.65
18819;BME280;9537;45.594;9.294;2023-11-18T02:38:50;100101.59;;;11.93;32.56
18819;BME280;9537;45.594;9.294;2023-11-18T02:39:53;100105.38;;;11.91;32.69
18819;BME280;9537;45.594;9.294;2023-11-18T02:41:02;100104.56;;;11.90;33.17
18819;BME280;9537;45.594;9.294;2023-11-18T02:42:07;100111.34;;;11.85;33.48
18819;BME280;9537;45.594;9.294;2023-11-18T02:43:10;100106.19;;;11.83;32.95
18819;BME280;9537;45.594;9.294;2023-11-18T02:44:11;100107.22;;;11.82;32.66
18819;BME280;9537;45.594;9.294;2023-11-18T02:45:19;100107.38;;;11.81;32.85
18819;BME280;9537;45.594;9.294;2023-11-18T02:46:22;100109.34;;;11.79;32.83
18819;BME280;9537;45.594;9.294;2023-11-18T02:47:23;100113.00;;;11.78;32.91
18819;BME280;9537;45.594;9.294;2023-11-18T02:48:26;100108.03;;;11.75;33.63
18819;BME280;9537;45.594;9.294;2023-11-18T02:49:29;100103.91;;;11.72;33.04
18819;BME280;9537;45.594;9.294;2023-11-18T02:50:31;100108.53;;;11.70;33.31
18819;BME280;9537;45.594;9.294;2023-11-18T02:51:32;100108.06;;;11.66;32.80
18819;BME280;9537;45.594;9.294;2023-11-18T02:52:39;100115.19;;;11.58;33.15
18819;BME280;9537;45.594;9.294;2023-11-18T02:53:40;100119.81;;;11.56;33.22
18819;BME280;9537;45.594;9.294;2023-11-18T02:54:45;100115.88;;;11.52;33.77
18819;BME280;9537;45.594;9.294;2023-11-18T02:55:46;100112.72;;;11.48;33.39
18819;BME280;9537;45.594;9.294;2023-11-18T02:56:49;100118.84;;;11.48;33.13
18819;BME280;9537;45.594;9.294;2023-11-18T02:57:50;100119.19;;;11.45;33.22
18819;BME280;9537;45.594;9.294;2023-11-18T02:58:52;100114.22;;;11.42;33.63
18819;BME280;9537;45.594;9.294;2023-11-18T02:59:53;100113.72;;;11.39;33.81
18819;BME280;9537;45.594;9.294;2023-11-18T03:00:53;100110.44;;;11.37;33.75
18819;BME280;9537;45.594;9.294;2023-11-18T03:01:55;100112.41;;;11.35;33.98
18819;BME280;9537;45.594;9.294;2023-11-18T03:02:56;100115.38;;;11.32;34.46
18819;BME280;9537;45.594;9.294;2023-11-18T03:03:57;100104.47;;;11.26;34.68
18819;BME280;9537;45.594;9.294;2023-11-18T03:04:59;100103.81;;;11.24;34.91
18819;BME280;9537;45.594;9.294;2023-11-18T03:06:00;100103.50;;;11.19;35.35
18819;BME280;9537;45.594;9.294;2023-11-18T03:07:01;100108.59;;;11.21;35.74
18819;BME280;9537;45.594;9.294;2023-11-18T03:08:02;100104.31;;;11.20;35.87
18819;BME280;9537;45.594;9.294;2023-11-18T03:09:06;100106.47;;;11.16;36.16
18819;BME280;9537;45.594;9.294;2023-11-18T03:10:08;100104.81;;;11.15;36.13
18819;BME280;9537;45.594;9.294;2023-11-18T03:11:12;100103.31;;;11.13;36.16
18819;BME280;9537;45.594;9.294;2023-11-18T03:12:15;100102.00;;;11.17;36.32
18819;BME280;9537;45.594;9.294;2023-11-18T03:13:17;100104.81;;;11.15;36.41
18819;BME280;9537;45.594;9.294;2023-11-18T03:14:18;100102.00;;;11.09;36.38
18819;BME280;9537;45.594;9.294;2023-11-18T03:15:20;100099.34;;;11.09;36.15
18819;BME280;9537;45.594;9.294;2023-11-18T03:16:21;100095.91;;;11.08;36.40
18819;BME280;9537;45.594;9.294;2023-11-18T03:17:24;100097.19;;;11.04;36.92
18819;BME280;9537;45.594;9.294;2023-11-18T03:18:25;100097.53;;;11.01;36.82
18819;BME280;9537;45.594;9.294;2023-11-18T03:19:27;100099.53;;;10.99;37.25
18819;BME280;9537;45.594;9.294;2023-11-18T03:20:29;100100.50;;;10.98;37.46
18819;BME280;9537;45.594;9.294;2023-11-18T03:21:31;100099.19;;;10.94;37.95
18819;BME280;9537;45.594;9.294;2023-11-18T03:22:32;100100.84;;;10.95;38.26
18819;BME280;9537;45.594;9.294;2023-11-18T03:23:33;100099.53;;;10.91;38.23
18819;BME280;9537;45.594;9.294;2023-11-18T03:24:34;100095.22;;;10.90;37.94
18819;BME280;9537;45.594;9.294;2023-11-18T03:25:36;100091.41;;;10.84;37.52
18819;BME280;9537;45.594;9.294;2023-11-18T03:26:38;100083.47;;;10.84;37.60
18819;BME280;9537;45.594;9.294;2023-11-18T03:27:41;100098.84;;;10.80;38.15
18819;BME280;9537;45.594;9.294;2023-11-18T03:28:42;100076.88;;;10.80;38.00
18819;BME280;9537;45.594;9.294;2023-11-18T03:29:44;100074.72;;;10.83;38.06
18819;BME280;9537;45.594;9.294;2023-11-18T03:30:46;100088.13;;;10.82;38.42
18819;BME280;9537;45.594;9.294;2023-11-18T03:31:48;100088.59;;;10.77;38.29
18819;BME280;9537;45.594;9.294;2023-11-18T03:32:49;100083.97;;;10.71;39.08
18819;BME280;9537;45.594;9.294;2023-11-18T03:33:50;100077.69;;;10.64;38.86
18819;BME280;9537;45.594;9.294;2023-11-18T03:34:52;100079.00;;;10.60;38.56
18819;BME280;9537;45.594;9.294;2023-11-18T03:35:54;100073.03;;;10.58;38.49
18819;BME280;9537;45.594;9.294;2023-11-18T03:36:56;100068.41;;;10.52;38.44
18819;BME280;9537;45.594;9.294;2023-11-18T03:37:58;100067.44;;;10.45;39.49
18819;BME280;9537;45.594;9.294;2023-11-18T03:38:59;100070.19;;;10.35;40.17
18819;BME280;9537;45.594;9.294;2023-11-18T03:40:02;100074.09;;;10.23;40.92
18819;BME280;9537;45.594;9.294;2023-11-18T03:41:03;100077.41;;;10.25;41.01
18819;BME280;9537;45.594;9.294;2023-11-18T03:42:05;100078.56;;;10.22;40.81
18819;BME280;9537;45.594;9.294;2023-11-18T03:43:07;100076.41;;;10.26;40.91
18819;BME280;9537;45.594;9.294;2023-11-18T03:44:12;100079.88;;;10.26;40.80
18819;BME280;9537;45.594;9.294;2023-11-18T03:45:12;100077.13;;;10.28;40.48
18819;BME280;9537;45.594;9.294;2023-11-18T03:46:15;100080.25;;;10.31;40.39
18819;BME280;9537;45.594;9.294;2023-11-18T03:47:17;100093.13;;;10.34;40.31
18819;BME280;9537;45.594;9.294;2023-11-18T03:48:17;100094.13;;;10.33;39.92
18819;BME280;9537;45.594;9.294;2023-11-18T03:49:19;100097.75;;;10.32;40.35
18819;BME280;9537;45.594;9.294;2023-11-18T03:50:21;100090.63;;;10.25;40.53
18819;BME280;9537;45.594;9.294;2023-11-18T03:51:22;100097.03;;;10.22;40.44
18819;BME280;9537;45.594;9.294;2023-11-18T03:52:23;100107.06;;;10.19;40.46
18819;BME280;9537;45.594;9.294;2023-11-18T03:53:24;100103.91;;;10.15;41.00
18819;BME280;9537;45.594;9.294;2023-11-18T03:54:26;100109.06;;;10.17;40.97
18819;BME280;9537;45.594;9.294;2023-11-18T03:55:27;100107.06;;;10.19;40.82
18819;BME280;9537;45.594;9.294;2023-11-18T03:56:29;100111.84;;;10.15;40.87
18819;BME280;9537;45.594;9.294;2023-11-18T03:57:30;100106.09;;;10.20;40.50
18819;BME280;9537;45.594;9.294;2023-11-18T03:58:32;100110.69;;;10.18;40.64
18819;BME280;9537;45.594;9.294;2023-11-18T03:59:34;100109.53;;;10.12;40.72
18819;BME280;9537;45.594;9.294;2023-11-18T04:00:35;100105.75;;;10.14;40.75
18819;BME280;9537;45.594;9.294;2023-11-18T04:01:37;100100.63;;;10.13;40.86
18819;BME280;9537;45.594;9.294;2023-11-18T04:02:38;100112.00;;;10.13;41.30
18819;BME280;9537;45.594;9.294;2023-11-18T04:03:40;100107.69;;;10.12;41.49
18819;BME280;9537;45.594;9.294;2023-11-18T04:04:42;100109.19;;;10.15;41.61
18819;BME280;9537;45.594;9.294;2023-11-18T04:05:43;100109.06;;;10.17;41.73
18819;BME280;9537;45.594;9.294;2023-11-18T04:06:45;100121.25;;;10.18;41.76
18819;BME280;9537;45.594;9.294;2023-11-18T04:07:47;100122.25;;;10.17;42.24
18819;BME280;9537;45.594;9.294;2023-11-18T04:08:48;100123.22;;;10.07;42.63
18819;BME280;9537;45.594;9.294;2023-11-18T04:09:49;100118.72;;;10.00;42.57
18819;BME280;9537;45.594;9.294;2023-11-18T04:10:51;100129.59;;;9.97;42.76
18819;BME280;9537;45.594;9.294;2023-11-18T04:11:51;100119.03;;;9.97;42.40
18819;BME280;9537;45.594;9.294;2023-11-18T04:12:53;100121.16;;;9.93;42.54
18819;BME280;9537;45.594;9.294;2023-11-18T04:13:55;100124.63;;;9.93;42.67
18819;BME280;9537;45.594;9.294;2023-11-18T04:14:57;100122.31;;;9.90;42.86
18819;BME280;9537;45.594;9.294;2023-11-18T04:15:58;100133.16;;;9.87;43.06
18819;BME280;9537;45.594;9.294;2023-11-18T04:16:59;100129.34;;;9.90;42.89
18819;BME280;9537;45.594;9.294;2023-11-18T04:18:00;100122.94;;;9.92;43.09
18819;BME280;9537;45.594;9.294;2023-11-18T04:19:02;100128.22;;;9.92;43.21
18819;BME280;9537;45.594;9.294;2023-11-18T04:20:03;100128.53;;;9.89;43.10
18819;BME280;9537;45.594;9.294;2023-11-18T04:21:12;100125.91;;;9.89;43.62
18819;BME280;9537;45.594;9.294;2023-11-18T04:22:13;100124.75;;;9.92;43.37
18819;BME280;9537;45.594;9.294;2023-11-18T04:23:15;100134.63;;;9.90;42.92
18819;BME280;9537;45.594;9.294;2023-11-18T04:24:16;100132.50;;;9.85;43.08
18819;BME280;9537;45.594;9.294;2023-11-18T04:25:17;100132.63;;;9.84;43.48
18819;BME280;9537;45.594;9.294;2023-11-18T04:26:18;100139.03;;;9.73;43.84
18819;BME280;9537;45.594;9.294;2023-11-18T04:27:20;100135.66;;;9.63;44.70
18819;BME280;9537;45.594;9.294;2023-11-18T04:28:21;100144.56;;;9.62;43.88
18819;BME280;9537;45.594;9.294;2023-11-18T04:29:24;100135.75;;;9.53;43.15
18819;BME280;9537;45.594;9.294;2023-11-18T04:30:25;100138.84;;;9.48;43.35
18819;BME280;9537;45.594;9.294;2023-11-18T04:31:27;100139.84;;;9.47;43.21
18819;BME280;9537;45.594;9.294;2023-11-18T04:32:28;100131.56;;;9.42;42.98
18819;BME280;9537;45.594;9.294;2023-11-18T04:33:28;100144.56;;;9.44;43.86
18819;BME280;9537;45.594;9.294;2023-11-18T04:34:30;100151.13;;;9.40;44.08
18819;BME280;9537;45.594;9.294;2023-11-18T04:35:33;100142.41;;;9.39;44.43
18819;BME280;9537;45.594;9.294;2023-11-18T04:36:35;100136.81;;;9.42;44.79
18819;BME280;9537;45.594;9.294;2023-11-18T04:37:35;100135.31;;;9.40;44.96
18819;BME280;9537;45.594;9.294;2023-11-18T04:38:37;100136.00;;;9.42;45.00
18819;BME280;9537;45.594;9.294;2023-11-18T04:39:38;100136.50;;;9.45;44.99
18819;BME280;9537;45.594;9.294;2023-11-18T04:40:40;100136.81;;;9.42;45.08
18819;BME280;9537;45.594;9.294;2023-11-18T04:41:41;100141.41;;;9.40;45.04
18819;BME280;9537;45.594;9.294;2023-11-18T04:42:44;100138.78;;;9.40;45.11
18819;BME280;9537;45.594;9.294;2023-11-18T04:43:45;100143.91;;;9.42;44.79
18819;BME280;9537;45.594;9.294;2023-11-18T04:44:49;100150.31;;;9.39;44.43
18819;BME280;9537;45.594;9.294;2023-11-18T04:45:50;100157.09;;;9.42;44.56
18819;BME280;9537;45.594;9.294;2023-11-18T04:46:53;100152.56;;;9.34;45.17
18819;BME280;9537;45.594;9.294;2023-11-18T04:47:53;100146.94;;;9.29;45.37
18819;BME280;9537;45.594;9.294;2023-11-18T04:48:56;100143.09;;;9.23;45.67
18819;BME280;9537;45.594;9.294;2023-11-18T04:49:56;100152.28;;;9.19;45.64
18819;BME280;9537;45.594;9.294;2023-11-18T04:50:58;100146.84;;;9.21;45.77
18819;BME280;9537;45.594;9.294;2023-11-18T04:51:59;100149.19;;;9.24;46.06
18819;BME280;9537;45.594;9.294;2023-11-18T04:53:01;100153.13;;;9.20;45.88
18819;BME280;9537;45.594;9.294;2023-11-18T04:54:03;100153.25;;;9.18;46.33
18819;BME280;9537;45.594;9.294;2023-11-18T04:55:05;100156.50;;;9.12;46.77
18819;BME280;9537;45.594;9.294;2023-11-18T04:56:07;100154.84;;;9.11;47.33
18819;BME280;9537;45.594;9.294;2023-11-18T04:57:10;100161.94;;;9.11;47.32
18819;BME280;9537;45.594;9.294;2023-11-18T04:58:11;100157.56;;;9.01;47.62
18819;BME280;9537;45.594;9.294;2023-11-18T04:59:13;100145.16;;;8.94;47.75
18819;BME280;9537;45.594;9.294;2023-11-18T05:00:16;100143.19;;;8.96;47.76
18819;BME280;9537;45.594;9.294;2023-11-18T05:01:19;100155.00;;;8.92;47.59
18819;BME280;9537;45.594;9.294;2023-11-18T05:02:20;100146.41;;;8.90;47.41
18819;BME280;9537;45.594;9.294;2023-11-18T05:03:23;100148.59;;;8.94;47.45
18819;BME280;9537;45.594;9.294;2023-11-18T05:04:24;100147.59;;;8.95;47.74
18819;BME280;9537;45.594;9.294;2023-11-18T05:05:26;100144.69;;;8.98;47.78
18819;BME280;9537;45.594;9.294;2023-11-18T05:06:27;100145.16;;;8.94;47.87
18819;BME280;9537;45.594;9.294;2023-11-18T05:07:29;100150.56;;;8.92;48.14
18819;BME280;9537;45.594;9.294;2023-11-18T05:08:30;100156.13;;;8.89;48.52
18819;BME280;9537;45.594;9.294;2023-11-18T05:09:31;100165.00;;;8.88;48.87
18819;BME280;9537;45.594;9.294;2023-11-18T05:10:33;100164.41;;;8.76;49.41
18819;BME280;9537;45.594;9.294;2023-11-18T05:11:33;100157.75;;;8.72;49.65
18819;BME280;9537;45.594;9.294;2023-11-18T05:12:36;100165.00;;;8.70;49.45
18819;BME280;9537;45.594;9.294;2023-11-18T05:13:37;100163.31;;;8.69;48.77
18819;BME280;9537;45.594;9.294;2023-11-18T05:14:40;100174.41;;;8.73;48.08
18819;BME280;9537;45.594;9.294;2023-11-18T05:15:42;100162.72;;;8.75;48.15
18819;BME280;9537;45.594;9.294;2023-11-18T05:16:46;100173.00;;;8.78;48.38
18819;BME280;9537;45.594;9.294;2023-11-18T05:17:47;100172.44;;;8.75;48.78
18819;BME280;9537;45.594;9.294;2023-11-18T05:18:49;100165.00;;;8.70;48.17
18819;BME280;9537;45.594;9.294;2023-11-18T05:19:49;100164.44;;;8.67;47.68
18819;BME280;9537;45.594;9.294;2023-11-18T05:20:51;100157.97;;;8.61;48.10
18819;BME280;9537;45.594;9.294;2023-11-18T05:21:52;100163.22;;;8.61;47.95
18819;BME280;9537;45.594;9.294;2023-11-18T05:22:54;100173.09;;;8.59;48.07
18819;BME280;9537;45.594;9.294;2023-11-18T05:23:55;100178.38;;;8.59;48.56
18819;BME280;9537;45.594;9.294;2023-11-18T05:24:57;100178.09;;;8.52;48.34
18819;BME280;9537;45.594;9.294;2023-11-18T05:25:58;100181.88;;;8.50;48.66
18819;BME280;9537;45.594;9.294;2023-11-18T05:26:59;100189.22;;;8.46;49.00
18819;BME280;9537;45.594;9.294;2023-11-18T05:28:02;100179.00;;;8.43;49.72
18819;BME280;9537;45.594;9.294;2023-11-18T05:29:03;100178.03;;;8.44;49.61
18819;BME280;9537;45.594;9.294;2023-11-18T05:30:07;100175.66;;;8.41;50.24
18819;BME280;9537;45.594;9.294;2023-11-18T05:31:10;100167.94;;;8.40;50.23